createdAt,value
2022-11-16T00:00:02.799Z,98158.00
2022-11-16T00:02:32.206Z,98149.94
2022-11-16T00:04:58.849Z,98156.28
2022-11-16T00:07:26.772Z,98151.78
2022-11-16T00:09:53.321Z,98149.78
2022-11-16T00:12:19.809Z,98145.97
2022-11-16T00:14:46.472Z,98146.28
2022-11-16T00:17:12.906Z,98149.78
2022-11-16T00:19:39.527Z,98133.69
2022-11-16T00:22:05.999Z,98138.44
2022-11-16T00:24:34.178Z,98136.34
2022-11-16T00:27:00.919Z,98125.09
2022-11-16T00:29:27.701Z,98135.34
2022-11-16T00:31:54.886Z,98139.09
2022-11-16T00:34:22.080Z,98134.66
2022-11-16T00:36:48.934Z,98129.66
2022-11-16T00:39:16.819Z,98129.09
2022-11-16T00:41:45.304Z,98134.66
2022-11-16T00:44:12.045Z,98135.59
2022-11-16T00:46:38.662Z,98128.47
2022-11-16T00:49:06.050Z,98124.09
2022-11-16T00:51:32.788Z,98126.59
2022-11-16T00:53:59.287Z,98129.88
2022-11-16T00:56:25.782Z,98117.31
2022-11-16T00:58:53.652Z,98122.25
2022-11-16T01:01:20.294Z,98127.09
2022-11-16T01:03:46.812Z,98122.31
2022-11-16T01:06:15.122Z,98123.22
2022-11-16T01:08:43.120Z,98128.41
2022-11-16T01:11:12.511Z,98112.19
2022-11-16T01:13:38.971Z,98122.72
2022-11-16T01:16:07.271Z,98111.94
2022-11-16T01:18:34.153Z,98111.25
2022-11-16T01:21:00.818Z,98094.78
2022-11-16T01:23:27.325Z,98112.19
2022-11-16T01:25:56.335Z,98112.63
2022-11-16T01:28:22.844Z,98109.13
2022-11-16T01:30:49.622Z,98104.09
2022-11-16T01:33:17.425Z,98105.53
2022-11-16T01:35:43.917Z,98110.22
2022-11-16T01:38:10.757Z,98106.53
2022-11-16T01:40:37.918Z,98104.09
2022-11-16T01:43:15.622Z,98097.75
2022-11-16T01:45:42.406Z,98100.22
2022-11-16T01:48:10.680Z,98098.28
2022-11-16T01:50:38.938Z,98101.59
2022-11-16T01:53:08.394Z,98108.53
2022-11-16T01:55:37.187Z,98106.66
2022-11-16T01:58:04.454Z,98114.31
2022-11-16T02:00:30.950Z,98114.22
2022-11-16T02:02:57.413Z,98112.97
2022-11-16T02:05:33.998Z,98119.75
2022-11-16T02:08:18.501Z,98116.53
2022-11-16T02:11:02.756Z,98110.66
2022-11-16T02:13:39.664Z,98104.31
2022-11-16T02:16:17.055Z,98099.81
2022-11-16T02:18:51.848Z,98102.22
2022-11-16T02:21:35.798Z,98101.59
2022-11-16T02:24:34.117Z,98098.38
2022-11-16T02:27:40.185Z,98085.50
2022-11-16T02:30:08.938Z,98077.56
2022-11-16T02:32:41.145Z,98081.06
2022-11-16T02:35:13.610Z,98080.84
2022-11-16T02:37:45.350Z,98083.13
2022-11-16T02:40:16.040Z,98085.53
2022-11-16T02:42:45.479Z,98087.22
2022-11-16T02:45:19.307Z,98088.09
2022-11-16T02:47:48.410Z,98077.38
2022-11-16T02:50:17.933Z,98075.56
2022-11-16T02:52:44.547Z,98066.91
2022-11-16T02:55:11.756Z,98065.22
2022-11-16T02:57:44.286Z,98054.63
2022-11-16T03:00:18.736Z,98050.47
2022-11-16T03:02:54.103Z,98054.03
2022-11-16T03:05:24.881Z,98051.13
2022-11-16T03:07:59.417Z,98048.63
2022-11-16T03:10:26.703Z,98053.25
2022-11-16T03:12:53.492Z,98053.38
2022-11-16T03:15:21.623Z,98041.94
2022-11-16T03:17:50.255Z,98038.69
2022-11-16T03:20:21.848Z,98038.88
2022-11-16T03:22:52.279Z,98051.47
2022-11-16T03:25:20.704Z,98039.75
2022-11-16T03:27:52.973Z,98042.00
2022-11-16T03:30:24.054Z,98054.31
2022-11-16T03:32:58.714Z,98051.13
2022-11-16T03:35:30.086Z,98059.38
2022-11-16T03:37:59.708Z,98059.97
2022-11-16T03:40:28.953Z,98066.97
2022-11-16T03:42:56.508Z,98057.94
2022-11-16T03:45:24.721Z,98064.38
2022-11-16T03:47:51.334Z,98068.28
2022-11-16T03:50:17.837Z,98083.44
2022-11-16T03:52:44.328Z,98080.88
2022-11-16T03:55:10.934Z,98087.22
2022-11-16T03:57:37.397Z,98090.47
2022-11-16T04:00:04.673Z,98087.84
2022-11-16T04:02:32.531Z,98086.47
2022-11-16T04:04:59.031Z,98085.72
2022-11-16T04:07:25.632Z,98089.63
2022-11-16T04:09:52.146Z,98085.25
2022-11-16T04:12:18.632Z,98090.28
2022-11-16T04:14:45.243Z,98089.78
2022-11-16T04:17:13.082Z,98086.91
2022-11-16T04:19:40.934Z,98084.06
2022-11-16T04:22:14.284Z,98090.47
2022-11-16T04:24:44.140Z,98096.44
2022-11-16T04:27:15.541Z,98098.63
2022-11-16T04:29:42.444Z,98108.28
2022-11-16T04:32:10.095Z,98107.09
2022-11-16T04:34:36.585Z,98113.59
2022-11-16T04:37:04.397Z,98112.88
2022-11-16T04:39:30.916Z,98113.16
2022-11-16T04:41:57.522Z,98111.66
2022-11-16T04:44:29.795Z,98103.38
2022-11-16T04:46:56.714Z,98113.47
2022-11-16T04:49:23.290Z,98109.53
2022-11-16T04:51:49.781Z,98115.16
2022-11-16T04:54:17.878Z,98116.41
2022-11-16T04:56:44.445Z,98115.31
2022-11-16T04:59:11.081Z,98115.16
2022-11-16T05:01:37.579Z,98119.59
2022-11-16T05:04:04.510Z,98118.97
2022-11-16T05:06:31.043Z,98117.41
2022-11-16T05:08:57.521Z,98127.88
2022-11-16T05:11:25.400Z,98119.16
2022-11-16T05:13:51.996Z,98115.25
2022-11-16T05:16:18.535Z,98123.38
2022-11-16T05:18:45.261Z,98121.78
2022-11-16T05:21:11.730Z,98111.50
2022-11-16T05:23:38.403Z,98117.38
2022-11-16T05:26:05.064Z,98120.47
2022-11-16T05:28:33.253Z,98132.19
2022-11-16T05:31:01.274Z,98127.53
2022-11-16T05:33:27.781Z,98133.03
2022-11-16T05:35:54.380Z,98122.81
2022-11-16T05:38:20.855Z,98133.53
2022-11-16T05:40:47.633Z,98135.63
2022-11-16T05:43:14.219Z,98135.28
2022-11-16T05:45:42.572Z,98137.41
2022-11-16T05:48:09.100Z,98134.41
2022-11-16T05:50:41.362Z,98151.69
2022-11-16T05:53:09.263Z,98150.88
2022-11-16T05:55:35.952Z,98146.84
2022-11-16T05:58:05.002Z,98146.59
2022-11-16T06:00:31.535Z,98155.09
2022-11-16T06:02:59.409Z,98166.75
2022-11-16T06:05:26.020Z,98165.47
2022-11-16T06:07:52.839Z,98167.69
2022-11-16T06:10:19.381Z,98163.91
2022-11-16T06:12:45.927Z,98154.47
2022-11-16T06:15:12.476Z,98155.28
2022-11-16T06:17:41.201Z,98166.56
2022-11-16T06:20:11.113Z,98170.09
2022-11-16T06:22:38.171Z,98164.47
2022-11-16T06:25:05.727Z,98171.09
2022-11-16T06:27:32.515Z,98172.97
2022-11-16T06:29:59.043Z,98173.47
2022-11-16T06:32:25.538Z,98173.91
2022-11-16T06:34:52.033Z,98175.25
2022-11-16T06:37:19.933Z,98179.91
2022-11-16T06:39:46.444Z,98190.88
2022-11-16T06:42:12.943Z,98197.69
2022-11-16T06:44:39.534Z,98199.47
2022-11-16T06:47:06.028Z,98207.88
2022-11-16T06:49:32.487Z,98212.25
2022-11-16T06:51:59.135Z,98204.66
2022-11-16T06:54:26.962Z,98209.69
2022-11-16T06:56:53.480Z,98221.88
2022-11-16T06:59:20.326Z,98218.91
2022-11-16T07:01:47.037Z,98231.81
2022-11-16T07:04:13.636Z,98223.16
2022-11-16T07:06:40.461Z,98228.50
2022-11-16T07:09:07.614Z,98237.69
2022-11-16T07:11:36.275Z,98229.38
2022-11-16T07:14:03.060Z,98233.69
2022-11-16T07:16:29.854Z,98234.25
2022-11-16T07:18:56.806Z,98228.78
2022-11-16T07:21:23.923Z,98239.41
2022-11-16T07:23:50.490Z,98248.47
2022-11-16T07:26:17.468Z,98248.47
2022-11-16T07:28:48.456Z,98258.16
2022-11-16T07:31:15.906Z,98257.72
2022-11-16T07:33:42.579Z,98258.63
2022-11-16T07:36:11.079Z,98265.06
2022-11-16T07:38:37.866Z,98265.91
2022-11-16T07:41:06.587Z,98267.84
2022-11-16T07:43:34.202Z,98269.97
2022-11-16T07:46:28.292Z,98273.50
2022-11-16T07:48:51.833Z,98262.72
2022-11-16T07:51:19.080Z,98272.00
2022-11-16T07:53:46.275Z,98277.38
2022-11-16T07:56:13.127Z,98276.88
2022-11-16T07:58:39.850Z,98270.72
2022-11-16T08:01:09.873Z,98279.91
2022-11-16T08:03:39.305Z,98284.75
2022-11-16T08:06:07.778Z,98277.91
2022-11-16T08:08:34.805Z,98278.72
2022-11-16T08:11:02.438Z,98281.34
2022-11-16T08:13:29.490Z,98280.88
2022-11-16T08:15:59.903Z,98278.41
2022-11-16T08:18:27.830Z,98278.06
2022-11-16T08:20:54.364Z,98278.19
2022-11-16T08:23:21.000Z,98276.50
2022-11-16T08:25:47.513Z,98284.59
2022-11-16T08:28:13.999Z,98284.94
2022-11-16T08:30:40.501Z,98284.25
2022-11-16T08:33:07.558Z,98289.09
2022-11-16T08:35:35.562Z,98293.44
2022-11-16T08:38:02.188Z,98296.19
2022-11-16T08:40:28.995Z,98299.53
2022-11-16T08:42:55.527Z,98297.97
2022-11-16T08:45:22.094Z,98309.09
2022-11-16T08:47:48.676Z,98316.88
2022-11-16T08:50:15.979Z,98315.22
2022-11-16T08:52:44.035Z,98325.56
2022-11-16T08:55:10.753Z,98335.09
2022-11-16T08:57:46.235Z,98330.91
2022-11-16T09:00:26.953Z,98332.72
2022-11-16T09:02:53.973Z,98335.00
2022-11-16T09:05:20.502Z,98342.44
2022-11-16T09:07:48.366Z,98350.38
2022-11-16T09:10:15.239Z,98351.28
2022-11-16T09:12:41.760Z,98355.66
2022-11-16T09:15:09.317Z,98350.47
2022-11-16T09:17:35.836Z,98354.09
2022-11-16T09:20:02.453Z,98345.69
2022-11-16T09:22:28.945Z,98344.00
2022-11-16T09:24:56.818Z,98346.66
2022-11-16T09:27:23.411Z,98334.19
2022-11-16T09:29:50.118Z,98349.38
2022-11-16T09:32:16.641Z,98351.13
2022-11-16T09:34:43.198Z,98357.19
2022-11-16T09:37:09.699Z,98353.53
2022-11-16T09:39:36.245Z,98348.44
2022-11-16T09:42:25.485Z,98347.06
2022-11-16T09:45:01.198Z,98349.19
2022-11-16T09:47:40.136Z,98347.13
2022-11-16T09:50:08.291Z,98349.13
2022-11-16T09:52:44.138Z,98349.81
2022-11-16T09:55:23.887Z,98358.75
2022-11-16T09:57:54.324Z,98346.25
2022-11-16T10:00:22.709Z,98348.38
2022-11-16T10:02:59.989Z,98348.75
2022-11-16T10:05:30.870Z,98343.59
2022-11-16T10:08:18.183Z,98341.91
2022-11-16T10:10:53.965Z,98354.31
2022-11-16T10:13:36.706Z,98350.97
2022-11-16T10:16:10.434Z,98356.47
2022-11-16T10:18:46.994Z,98348.38
2022-11-16T10:21:31.191Z,98358.41
2022-11-16T10:24:16.055Z,98350.94
2022-11-16T10:26:50.473Z,98351.41
2022-11-16T10:29:31.669Z,98340.66
2022-11-16T10:32:08.461Z,98339.75
2022-11-16T10:34:45.503Z,98331.88
2022-11-16T10:37:13.451Z,98342.72
2022-11-16T10:39:40.973Z,98335.44
2022-11-16T10:42:11.632Z,98329.28
2022-11-16T10:44:44.042Z,98332.91
2022-11-16T10:47:18.983Z,98315.47
2022-11-16T10:49:53.503Z,98321.38
2022-11-16T10:52:20.358Z,98312.22
2022-11-16T10:54:46.891Z,98303.41
2022-11-16T10:57:13.493Z,98301.09
2022-11-16T10:59:43.383Z,98314.94
2022-11-16T11:02:33.875Z,98299.53
2022-11-16T11:05:04.549Z,98299.47
2022-11-16T11:07:36.288Z,98290.38
2022-11-16T11:10:03.856Z,98299.59
2022-11-16T11:12:30.373Z,98302.03
2022-11-16T11:15:05.131Z,98311.03
2022-11-16T11:17:33.376Z,98304.94
2022-11-16T11:20:01.979Z,98304.63
2022-11-16T11:22:28.535Z,98307.44
2022-11-16T11:24:55.152Z,98310.06
2022-11-16T11:27:24.878Z,98304.69
2022-11-16T11:29:53.535Z,98295.16
2022-11-16T11:32:24.637Z,98293.44
2022-11-16T11:34:53.695Z,98295.88
2022-11-16T11:37:23.388Z,98295.94
2022-11-16T11:40:05.537Z,98290.94
2022-11-16T11:42:32.080Z,98286.81
2022-11-16T11:45:02.059Z,98265.56
2022-11-16T11:50:32.698Z,98267.78
2022-11-16T11:53:05.365Z,98255.47
2022-11-16T11:55:31.843Z,98250.81
2022-11-16T11:58:00.212Z,98250.50
2022-11-16T12:00:26.989Z,98247.00
2022-11-16T12:03:21.746Z,98257.28
2022-11-16T12:06:03.733Z,98250.19
2022-11-16T12:08:47.245Z,98245.03
2022-11-16T12:11:23.036Z,98237.50
2022-11-16T12:14:00.328Z,98248.16
2022-11-16T12:16:32.877Z,98230.75
2022-11-16T12:22:28.559Z,98232.22
2022-11-16T12:25:10.005Z,98211.94
2022-11-16T12:27:46.966Z,98234.47
2022-11-16T12:30:16.949Z,98219.81
2022-11-16T12:33:01.754Z,98223.22
2022-11-16T12:35:48.722Z,98233.16
2022-11-16T12:38:37.851Z,98222.88
2022-11-16T12:41:22.719Z,98224.69
2022-11-16T12:43:59.325Z,98220.34
2022-11-16T12:46:34.887Z,98213.69
2022-11-16T12:49:31.380Z,98210.84
2022-11-16T12:52:11.316Z,98210.38
2022-11-16T12:55:25.358Z,98210.97
2022-11-16T12:58:17.242Z,98206.78
2022-11-16T13:00:55.992Z,98205.94
2022-11-16T13:03:33.850Z,98203.72
2022-11-16T13:06:05.790Z,98204.38
2022-11-16T13:08:43.696Z,98202.78
2022-11-16T13:11:17.702Z,98192.66
2022-11-16T13:13:52.778Z,98189.31
2022-11-16T13:16:21.663Z,98191.81
2022-11-16T13:18:48.515Z,98188.56
2022-11-16T13:21:35.982Z,98187.00
2022-11-16T13:24:14.080Z,98187.75
2022-11-16T13:26:49.139Z,98184.84
2022-11-16T13:29:28.549Z,98176.09
2022-11-16T13:32:01.897Z,98175.53
2022-11-16T13:34:33.331Z,98172.75
2022-11-16T13:37:02.783Z,98177.84
2022-11-16T13:40:09.348Z,98164.44
2022-11-16T13:42:44.455Z,98164.69
2022-11-16T13:45:17.911Z,98165.88
2022-11-16T13:47:49.975Z,98163.56
2022-11-16T13:50:19.522Z,98166.00
2022-11-16T13:53:46.237Z,98162.09
2022-11-16T13:55:38.903Z,98159.25
2022-11-16T13:58:11.115Z,98158.56
2022-11-16T14:00:40.058Z,98148.22
2022-11-16T14:03:29.087Z,98146.34
2022-11-16T14:05:55.747Z,98147.91
2022-11-16T14:08:50.562Z,98140.53
2022-11-16T14:11:35.844Z,98142.94
2022-11-16T14:14:05.959Z,98133.75
2022-11-16T14:16:54.061Z,98142.72
2022-11-16T14:19:53.454Z,98144.91
2022-11-16T14:22:50.733Z,98148.66
2022-11-16T14:25:30.334Z,98141.66
2022-11-16T14:28:08.752Z,98146.84
2022-11-16T14:30:50.915Z,98140.84
2022-11-16T14:33:29.431Z,98145.75
2022-11-16T14:35:56.271Z,98144.44
2022-11-16T14:38:30.040Z,98150.97
2022-11-16T14:40:59.976Z,98150.06
2022-11-16T14:43:32.884Z,98142.56
2022-11-16T14:46:06.147Z,98150.13
2022-11-16T14:48:33.714Z,98148.13
2022-11-16T14:51:06.906Z,98144.38
2022-11-16T14:53:36.787Z,98144.50
2022-11-16T14:56:10.077Z,98144.84
2022-11-16T14:58:37.335Z,98140.94
2022-11-16T15:01:13.897Z,98136.00
2022-11-16T15:03:48.641Z,98135.38
2022-11-16T15:06:16.353Z,98136.31
2022-11-16T15:08:46.761Z,98119.06
2022-11-16T15:11:22.344Z,98118.78
2022-11-16T15:13:52.367Z,98115.66
2022-11-16T15:16:20.798Z,98111.16
2022-11-16T15:18:58.259Z,98119.13
2022-11-16T15:21:26.288Z,98116.09
2022-11-16T15:24:23.510Z,98126.78
2022-11-16T15:26:40.629Z,98134.81
2022-11-16T15:29:14.700Z,98122.03
2022-11-16T15:31:46.025Z,98120.72
2022-11-16T15:34:13.944Z,98112.97
2022-11-16T15:36:42.684Z,98118.34
2022-11-16T15:39:13.948Z,98117.41
2022-11-16T15:41:43.446Z,98109.09
2022-11-16T15:44:15.557Z,98111.38
2022-11-16T15:46:47.171Z,98111.28
2022-11-16T15:49:30.334Z,98108.66
2022-11-16T15:51:58.250Z,98106.00
2022-11-16T15:54:26.659Z,98103.09
2022-11-16T15:56:55.455Z,98088.38
2022-11-16T15:59:26.799Z,98096.53
2022-11-16T16:01:55.650Z,98090.22
2022-11-16T16:04:24.240Z,98091.75
2022-11-16T16:06:52.656Z,98088.03
2022-11-16T16:09:25.824Z,98083.44
2022-11-16T16:11:54.202Z,98077.81
2022-11-16T16:14:26.660Z,98071.03
2022-11-16T16:16:56.723Z,98071.06
2022-11-16T16:19:33.569Z,98065.19
2022-11-16T16:22:00.418Z,98068.09
2022-11-16T16:24:39.840Z,98062.53
2022-11-16T16:27:15.545Z,98057.91
2022-11-16T16:29:44.754Z,98069.44
2022-11-16T16:32:23.641Z,98070.56
2022-11-16T16:34:53.014Z,98071.41
2022-11-16T16:37:25.588Z,98069.09
2022-11-16T16:39:52.187Z,98058.06
2022-11-16T16:42:19.004Z,98051.34
2022-11-16T16:44:46.937Z,98045.66
2022-11-16T16:47:13.957Z,98055.16
2022-11-16T16:49:43.300Z,98046.72
2022-11-16T16:52:12.046Z,98044.84
2022-11-16T16:54:39.950Z,98042.53
2022-11-16T16:57:07.136Z,98044.66
2022-11-16T16:59:33.667Z,98042.53
2022-11-16T17:02:00.544Z,98041.69
2022-11-16T17:04:27.077Z,98039.44
2022-11-16T17:06:55.422Z,98031.81
2022-11-16T17:09:21.995Z,98028.63
2022-11-16T17:11:49.284Z,98026.38
2022-11-16T17:14:16.052Z,98028.25
2022-11-16T17:16:45.052Z,98030.31
2022-11-16T17:19:12.067Z,98026.56
2022-11-16T17:21:38.664Z,98048.22
2022-11-16T17:24:08.322Z,98030.88
2022-11-16T17:26:35.640Z,98034.78
2022-11-16T17:29:02.687Z,98038.19
2022-11-16T17:31:29.383Z,98022.28
2022-11-16T17:33:56.598Z,98033.47
2022-11-16T17:36:23.766Z,98021.03
2022-11-16T17:38:53.446Z,98027.94
2022-11-16T17:41:21.736Z,98027.91
2022-11-16T17:43:51.646Z,98026.31
2022-11-16T17:46:20.719Z,98019.28
2022-11-16T17:48:51.562Z,98017.13
2022-11-16T17:51:23.373Z,98002.84
2022-11-16T17:53:51.960Z,97999.56
2022-11-16T17:56:22.186Z,98002.38
2022-11-16T17:58:49.690Z,97998.41
2022-11-16T18:01:16.537Z,98008.72
2022-11-16T18:03:43.491Z,98003.13
2022-11-16T18:06:14.911Z,97990.25
2022-11-16T18:08:42.913Z,97992.13
2022-11-16T18:11:15.168Z,97987.09
2022-11-16T18:13:44.712Z,97980.06
2022-11-16T18:16:13.059Z,97981.78
2022-11-16T18:18:40.277Z,97972.34
2022-11-16T18:21:08.213Z,97979.53
2022-11-16T18:23:40.216Z,97977.06
2022-11-16T18:26:11.109Z,97984.13
2022-11-16T18:28:37.858Z,97980.25
2022-11-16T18:31:10.754Z,97982.38
2022-11-16T18:33:38.586Z,97977.94
2022-11-16T18:36:06.464Z,97975.09
2022-11-16T18:38:33.245Z,97976.38
2022-11-16T18:41:07.025Z,97974.25
2022-11-16T18:43:37.243Z,97965.53
2022-11-16T18:46:06.368Z,97978.00
2022-11-16T18:48:33.179Z,97986.13
2022-11-16T18:51:00.911Z,97976.13
2022-11-16T18:53:28.604Z,97993.47
2022-11-16T18:55:58.212Z,97982.59
2022-11-16T18:58:49.272Z,97983.69
2022-11-16T19:01:17.960Z,97980.00
2022-11-16T19:03:44.848Z,97977.28
2022-11-16T19:06:12.330Z,97986.41
2022-11-16T19:08:40.910Z,97975.78
2022-11-16T19:11:09.919Z,97978.81
2022-11-16T19:13:37.163Z,97957.72
2022-11-16T19:16:04.425Z,97957.63
2022-11-16T19:18:32.448Z,97961.75
2022-11-16T19:21:03.835Z,97969.47
2022-11-16T19:23:30.476Z,97957.88
2022-11-16T19:26:00.583Z,97955.56
2022-11-16T19:28:27.142Z,97951.09
2022-11-16T19:30:53.748Z,97950.50
2022-11-16T19:33:20.397Z,97960.84
2022-11-16T19:35:48.341Z,97940.50
2022-11-16T19:38:15.082Z,97940.19
2022-11-16T19:40:41.779Z,97936.31
2022-11-16T19:43:08.670Z,97921.44
2022-11-16T19:45:35.584Z,97924.53
2022-11-16T19:48:02.201Z,97930.56
2022-11-16T19:50:29.590Z,97916.88
2022-11-16T19:52:57.474Z,97926.78
2022-11-16T19:55:24.530Z,97920.53
2022-11-16T19:57:51.457Z,97916.03
2022-11-16T20:00:18.592Z,97907.44
2022-11-16T20:02:57.769Z,97912.44
2022-11-16T20:05:31.450Z,97917.88
2022-11-16T20:08:14.544Z,97910.56
2022-11-16T20:10:41.365Z,97913.75
2022-11-16T20:13:08.714Z,97897.38
2022-11-16T20:18:24.615Z,97876.44
2022-11-16T20:20:54.418Z,97866.22
2022-11-16T22:33:51.961Z,97648.97
2022-11-16T22:43:34.592Z,97628.03
2022-11-16T22:46:37.292Z,97628.50
2022-11-16T22:52:45.537Z,97606.94
2022-11-16T22:55:38.805Z,97597.25
2022-11-16T23:03:32.546Z,97588.94
2022-11-16T23:05:43.692Z,97574.09
2022-11-16T23:15:30.443Z,97557.34
2022-11-16T23:21:28.524Z,97532.31
2022-11-16T23:24:22.958Z,97535.03
2022-11-16T23:26:53.461Z,97524.31
2022-11-16T23:32:58.617Z,97509.94
2022-11-16T23:35:32.114Z,97517.47
2022-11-16T23:44:57.593Z,97486.91
2022-11-16T23:47:26.768Z,97481.72
2022-11-16T23:50:40.974Z,97485.25
2022-11-16T23:53:14.885Z,97464.94
2022-11-16T23:55:45.213Z,97461.06
2022-11-16T23:58:15.942Z,97448.75
